createdAt,value
2018-09-02T00:01:37.676Z,11.60
2018-09-02T00:04:06.138Z,11.40
2018-09-02T00:06:34.629Z,11.40
2018-09-02T00:09:03.247Z,11.60
2018-09-02T00:11:31.803Z,10.40
2018-09-02T00:14:00.247Z,9.80
2018-09-02T00:16:28.709Z,10.20
2018-09-02T00:18:57.222Z,10.60
2018-09-02T00:21:25.750Z,11.00
2018-09-02T00:23:54.276Z,11.20
2018-09-02T00:26:22.834Z,10.20
2018-09-02T00:28:51.400Z,10.50
2018-09-02T00:31:20.083Z,10.90
2018-09-02T00:33:48.598Z,10.30
2018-09-02T00:36:17.119Z,9.80
2018-09-02T00:38:45.647Z,10.10
2018-09-02T00:41:14.237Z,9.70
2018-09-02T00:43:42.790Z,9.50
2018-09-02T00:46:11.225Z,9.90
2018-09-02T00:48:39.660Z,9.90
2018-09-02T00:51:08.087Z,9.40
2018-09-02T00:53:36.614Z,9.60
2018-09-02T00:56:05.283Z,9.60
2018-09-02T00:58:33.672Z,9.50
2018-09-02T01:01:02.119Z,9.50
2018-09-02T01:03:30.555Z,9.30
2018-09-02T01:05:59.032Z,9.00
2018-09-02T01:08:27.417Z,10.00
2018-09-02T01:10:55.867Z,9.80
2018-09-02T01:13:24.455Z,9.90
2018-09-02T01:15:52.883Z,10.20
2018-09-02T01:18:21.292Z,10.30
2018-09-02T01:20:49.753Z,9.90
2018-09-02T01:23:18.181Z,9.20
2018-09-02T01:25:46.675Z,9.00
2018-09-02T01:28:15.203Z,9.70
2018-09-02T01:30:43.605Z,9.80
2018-09-02T01:33:12.086Z,9.50
2018-09-02T01:35:40.513Z,9.40
2018-09-02T01:38:09.036Z,10.60
2018-09-02T01:40:37.578Z,11.00
2018-09-02T01:43:06.041Z,11.00
2018-09-02T01:45:34.615Z,11.00
2018-09-02T01:48:03.702Z,10.50
2018-09-02T01:50:32.238Z,9.60
2018-09-02T01:53:00.718Z,10.00
2018-09-02T01:55:29.197Z,9.80
2018-09-02T01:57:57.646Z,9.90
2018-09-02T02:00:26.122Z,10.50
2018-09-02T02:02:54.607Z,10.80
2018-09-02T02:05:23.168Z,10.40
2018-09-02T02:07:51.774Z,9.50
2018-09-02T02:10:20.350Z,9.50
2018-09-02T02:12:48.778Z,9.00
2018-09-02T02:15:17.308Z,9.90
2018-09-02T02:17:45.815Z,10.00
2018-09-02T02:20:14.204Z,10.20
2018-09-02T02:22:42.774Z,10.30
2018-09-02T02:25:11.403Z,9.20
2018-09-02T02:27:39.836Z,8.40
2018-09-02T02:30:08.355Z,8.30
2018-09-02T02:32:36.768Z,8.20
2018-09-02T02:35:05.268Z,8.50
2018-09-02T02:37:33.679Z,9.10
2018-09-02T02:40:02.006Z,9.40
2018-09-02T02:42:30.513Z,9.70
2018-09-02T02:44:58.961Z,9.90
2018-09-02T02:47:27.792Z,9.60
2018-09-02T02:49:56.379Z,9.10
2018-09-02T02:52:29.118Z,9.40
2018-09-02T02:54:57.552Z,9.80
2018-09-02T02:57:26.077Z,9.40
2018-09-02T02:59:54.513Z,8.70
2018-09-02T03:02:23.004Z,9.10
2018-09-02T03:04:51.438Z,9.50
2018-09-02T03:07:19.887Z,8.70
2018-09-02T03:09:48.451Z,9.00
2018-09-02T03:12:16.886Z,9.20
2018-09-02T03:14:45.388Z,9.40
2018-09-02T03:17:13.879Z,9.80
2018-09-02T03:19:42.374Z,9.10
2018-09-02T03:22:10.692Z,9.20
2018-09-02T03:24:39.214Z,9.60
2018-09-02T03:27:07.697Z,10.00
2018-09-02T03:29:36.134Z,9.90
2018-09-02T03:32:04.657Z,9.70
2018-09-02T03:34:33.091Z,10.10
2018-09-02T03:37:01.663Z,9.90
2018-09-02T03:39:30.315Z,10.40
2018-09-02T03:41:58.834Z,9.60
2018-09-02T03:44:27.299Z,8.60
2018-09-02T03:46:55.774Z,8.90
2018-09-02T03:49:24.242Z,9.50
2018-09-02T03:51:52.699Z,9.80
2018-09-02T03:54:21.135Z,10.00
2018-09-02T03:56:49.641Z,9.70
2018-09-02T03:59:18.146Z,9.40
2018-09-02T04:01:46.568Z,9.10
2018-09-02T04:04:14.993Z,8.60
2018-09-02T04:06:43.449Z,9.40
2018-09-02T04:09:12.813Z,9.60
2018-09-02T04:11:41.506Z,8.90
2018-09-02T04:14:09.984Z,8.30
2018-09-02T04:16:38.435Z,8.60
2018-09-02T04:19:06.927Z,9.00
2018-09-02T04:21:35.522Z,9.40
2018-09-02T04:24:04.035Z,9.30
2018-09-02T04:26:32.500Z,9.80
2018-09-02T04:29:01.039Z,9.10
2018-09-02T04:31:29.579Z,8.50
2018-09-02T04:33:57.983Z,8.00
2018-09-02T04:36:26.514Z,7.70
2018-09-02T04:38:54.872Z,8.60
2018-09-02T04:41:23.280Z,8.30
2018-09-02T04:43:51.700Z,8.80
2018-09-02T04:46:20.218Z,9.10
2018-09-02T04:48:48.823Z,9.50
2018-09-02T04:51:17.357Z,9.90
2018-09-02T04:53:45.835Z,10.00
2018-09-02T04:56:14.263Z,10.50
2018-09-02T04:58:42.678Z,10.50
2018-09-02T05:01:11.222Z,10.20
2018-09-02T05:03:39.717Z,10.30
2018-09-02T05:06:08.059Z,10.40
2018-09-02T05:08:36.465Z,10.00
2018-09-02T05:11:04.973Z,10.10
2018-09-02T05:13:33.450Z,10.00
2018-09-02T05:16:01.916Z,9.70
2018-09-02T05:18:30.430Z,9.30
2018-09-02T05:20:58.927Z,9.50
2018-09-02T05:23:27.382Z,9.60
2018-09-02T05:25:55.887Z,9.30
2018-09-02T05:28:24.455Z,9.70
2018-09-02T05:30:52.998Z,10.00
2018-09-02T05:33:21.495Z,10.00
2018-09-02T05:35:50.003Z,9.80
2018-09-02T05:38:18.451Z,9.50
2018-09-02T05:40:46.898Z,9.90
2018-09-02T05:43:15.310Z,10.30
2018-09-02T05:45:43.885Z,10.30
2018-09-02T05:48:12.308Z,9.40
2018-09-02T05:50:40.735Z,9.00
2018-09-02T05:53:09.159Z,9.40
2018-09-02T05:55:37.543Z,10.00
2018-09-02T05:58:06.099Z,10.00
2018-09-02T06:00:34.607Z,10.10
2018-09-02T06:03:03.165Z,9.80
2018-09-02T06:05:31.541Z,9.80
2018-09-02T06:07:59.941Z,10.10
2018-09-02T06:10:28.468Z,10.30
2018-09-02T06:12:56.949Z,10.40
2018-09-02T06:15:25.377Z,10.50
2018-09-02T06:17:53.829Z,10.40
2018-09-02T06:20:22.247Z,10.30
2018-09-02T06:22:50.711Z,9.90
2018-09-02T06:25:19.191Z,9.80
2018-09-02T06:27:47.660Z,9.60
2018-09-02T06:30:16.120Z,9.80
2018-09-02T06:32:44.534Z,10.60
2018-09-02T06:35:13.041Z,10.70
2018-09-02T06:37:41.472Z,10.30
2018-09-02T06:40:09.954Z,10.50
2018-09-02T06:42:38.370Z,10.80
2018-09-02T06:45:06.871Z,10.90
2018-09-02T06:47:35.373Z,11.00
2018-09-02T06:50:03.873Z,11.00
2018-09-02T06:52:32.291Z,11.00
2018-09-02T06:55:00.665Z,11.10
2018-09-02T06:57:29.708Z,10.90
2018-09-02T06:59:58.053Z,11.10
2018-09-02T07:02:26.488Z,11.40
2018-09-02T07:04:54.954Z,11.50
2018-09-02T07:07:23.421Z,11.80
2018-09-02T07:09:51.844Z,11.90
2018-09-02T07:12:20.334Z,12.10
2018-09-02T07:14:48.787Z,12.20
2018-09-02T07:17:17.195Z,12.30
2018-09-02T07:19:45.657Z,12.40
2018-09-02T07:22:14.024Z,12.40
2018-09-02T07:24:42.454Z,12.30
2018-09-02T07:27:10.890Z,12.30
2018-09-02T07:29:39.342Z,12.40
2018-09-02T07:32:07.822Z,12.30
2018-09-02T07:34:36.272Z,12.20
2018-09-02T07:37:04.989Z,12.50
2018-09-02T07:39:33.498Z,12.60
2018-09-02T07:42:01.915Z,12.60
2018-09-02T07:44:30.335Z,12.50
2018-09-02T07:46:58.686Z,12.30
2018-09-02T07:49:27.136Z,12.50
2018-09-02T07:51:55.552Z,12.60
2018-09-02T07:54:24.036Z,12.80
2018-09-02T07:56:52.478Z,13.00
2018-09-02T07:59:20.909Z,13.10
2018-09-02T08:01:49.496Z,13.10
2018-09-02T08:04:17.935Z,13.10
2018-09-02T08:06:46.407Z,13.10
2018-09-02T08:09:14.835Z,13.10
2018-09-02T08:11:43.417Z,13.10
2018-09-02T08:14:11.950Z,13.20
2018-09-02T08:16:40.446Z,13.20
2018-09-02T08:19:08.881Z,13.20
2018-09-02T08:21:37.320Z,13.30
2018-09-02T08:24:05.773Z,13.30
2018-09-02T08:26:34.200Z,13.40
2018-09-02T08:29:02.636Z,13.40
2018-09-02T08:31:31.078Z,13.40
2018-09-02T08:33:59.421Z,13.50
2018-09-02T08:36:27.919Z,13.70
2018-09-02T08:38:56.526Z,13.80
2018-09-02T08:41:24.979Z,13.90
2018-09-02T08:43:53.388Z,13.70
2018-09-02T08:46:21.788Z,13.90
2018-09-02T08:48:50.351Z,14.00
2018-09-02T08:51:18.815Z,14.20
2018-09-02T08:53:47.392Z,14.10
2018-09-02T08:56:15.832Z,14.20
2018-09-02T08:58:44.221Z,14.30
2018-09-02T09:01:12.619Z,14.30
2018-09-02T09:03:41.089Z,14.60
2018-09-02T09:06:09.534Z,14.80
2018-09-02T09:08:38.080Z,15.00
2018-09-02T09:11:06.418Z,15.20
2018-09-02T09:13:34.828Z,15.40
2018-09-02T09:16:03.364Z,15.50
2018-09-02T09:18:32.000Z,15.60
2018-09-02T09:21:00.498Z,15.80
2018-09-02T09:23:28.996Z,15.90
2018-09-02T09:25:57.406Z,16.10
2018-09-02T09:28:25.953Z,16.30
2018-09-02T09:30:54.303Z,16.60
2018-09-02T09:33:22.740Z,16.60
2018-09-02T09:35:51.086Z,16.80
2018-09-02T09:38:19.603Z,16.70
2018-09-02T09:40:48.156Z,16.80
2018-09-02T09:43:16.728Z,17.00
2018-09-02T09:45:45.223Z,17.20
2018-09-02T09:48:13.716Z,17.20
2018-09-02T09:50:42.195Z,17.50
2018-09-02T09:53:10.771Z,17.60
2018-09-02T09:55:39.906Z,17.50
2018-09-02T09:58:08.443Z,17.60
2018-09-02T10:00:42.223Z,17.80
2018-09-02T10:03:10.556Z,17.40
2018-09-02T10:05:38.935Z,17.30
2018-09-02T10:08:07.316Z,17.30
2018-09-02T10:10:35.905Z,17.40
2018-09-02T10:13:04.528Z,17.30
2018-09-02T10:15:33.035Z,17.40
2018-09-02T10:18:01.623Z,17.50
2018-09-02T10:20:30.535Z,17.50
2018-09-02T10:22:58.979Z,17.40
2018-09-02T10:25:27.410Z,17.40
2018-09-02T10:27:55.949Z,17.60
2018-09-02T10:30:24.327Z,17.80
2018-09-02T10:32:52.706Z,18.10
2018-09-02T10:35:21.109Z,18.70
2018-09-02T10:37:49.883Z,19.90
2018-09-02T10:40:18.319Z,19.60
2018-09-02T10:42:46.794Z,19.20
2018-09-02T10:45:15.249Z,18.60
2018-09-02T10:47:44.538Z,18.50
2018-09-02T10:50:13.247Z,18.40
2018-09-02T10:52:41.794Z,17.80
2018-09-02T10:55:10.217Z,17.80
2018-09-02T10:57:38.616Z,17.90
2018-09-02T11:00:08.842Z,17.90
2018-09-02T11:02:37.308Z,17.90
2018-09-02T11:05:06.765Z,18.20
2018-09-02T11:07:35.314Z,17.90
2018-09-02T11:10:03.830Z,17.70
2018-09-02T11:12:32.270Z,17.50
2018-09-02T11:15:00.745Z,17.40
2018-09-02T11:17:29.866Z,17.30
2018-09-02T11:19:58.378Z,17.10
2018-09-02T11:22:26.801Z,17.10
2018-09-02T11:24:55.275Z,17.10
2018-09-02T11:27:23.762Z,17.00
2018-09-02T11:29:52.185Z,16.90
2018-09-02T11:32:20.571Z,16.90
2018-09-02T11:34:49.058Z,16.80
2018-09-02T11:37:17.461Z,16.80
2018-09-02T11:39:45.996Z,16.80
2018-09-02T11:42:14.508Z,16.80
2018-09-02T11:44:43.041Z,16.80
2018-09-02T11:47:11.662Z,16.90
2018-09-02T11:49:40.112Z,17.00
2018-09-02T11:52:08.526Z,17.10
2018-09-02T11:54:36.895Z,17.30
2018-09-02T11:57:05.360Z,17.30
2018-09-02T11:59:33.837Z,17.30
2018-09-02T12:02:02.174Z,17.10
2018-09-02T12:04:30.529Z,17.30
2018-09-02T12:06:58.989Z,17.10
2018-09-02T12:09:27.485Z,17.20
2018-09-02T12:11:55.975Z,17.20
2018-09-02T12:14:24.540Z,17.30
2018-09-02T12:16:53.013Z,17.30
2018-09-02T12:19:21.466Z,17.50
2018-09-02T12:21:50.015Z,17.50
2018-09-02T12:24:18.577Z,17.50
2018-09-02T12:26:47.068Z,17.40
2018-09-02T12:29:16.316Z,17.40
2018-09-02T12:31:45.335Z,17.50
2018-09-02T12:34:14.078Z,17.40
2018-09-02T12:36:42.532Z,17.40
2018-09-02T12:39:11.123Z,17.40
2018-09-02T12:41:39.556Z,17.70
2018-09-02T12:44:08.007Z,17.80
2018-09-02T12:46:36.582Z,17.70
2018-09-02T12:49:05.253Z,17.70
2018-09-02T12:51:33.777Z,17.70
2018-09-02T12:54:02.182Z,17.70
2018-09-02T12:56:30.662Z,18.00
2018-09-02T12:58:59.188Z,18.10
2018-09-02T13:01:27.654Z,18.30
2018-09-02T13:03:56.144Z,18.20
2018-09-02T13:06:24.731Z,18.30
2018-09-02T13:08:53.236Z,18.20
2018-09-02T13:11:21.670Z,18.20
2018-09-02T13:13:50.120Z,18.30
2018-09-02T13:16:18.624Z,18.60
2018-09-02T13:18:47.233Z,18.30
2018-09-02T13:21:15.733Z,18.10
2018-09-02T13:23:44.360Z,18.00
2018-09-02T13:26:12.745Z,18.00
2018-09-02T13:28:41.131Z,18.00
2018-09-02T13:31:09.666Z,18.10
2018-09-02T13:33:38.044Z,18.30
2018-09-02T13:36:06.523Z,18.30
2018-09-02T13:38:34.933Z,18.30
2018-09-02T13:41:03.466Z,18.10
2018-09-02T13:43:31.910Z,18.10
2018-09-02T13:46:00.392Z,18.10
2018-09-02T13:48:29.274Z,18.10
2018-09-02T13:50:57.877Z,18.00
2018-09-02T13:53:26.382Z,18.20
2018-09-02T13:55:55.036Z,18.20
2018-09-02T13:58:23.523Z,18.00
2018-09-02T14:00:52.124Z,18.00
2018-09-02T14:03:20.533Z,18.10
2018-09-02T14:05:48.928Z,18.10
2018-09-02T14:08:17.454Z,18.00
2018-09-02T14:10:45.758Z,18.00
2018-09-02T14:13:14.138Z,17.90
2018-09-02T14:15:42.555Z,18.10
2018-09-02T14:18:11.093Z,18.10
2018-09-02T14:20:39.515Z,18.00
2018-09-02T14:23:08.067Z,18.10
2018-09-02T14:25:36.510Z,18.00
2018-09-02T14:28:05.181Z,18.00
2018-09-02T14:30:33.608Z,18.10
2018-09-02T14:33:02.096Z,18.00
2018-09-02T14:35:30.499Z,17.90
2018-09-02T14:37:59.262Z,18.00
2018-09-02T14:40:27.668Z,17.90
2018-09-02T14:42:56.147Z,17.90
2018-09-02T14:45:24.542Z,18.10
2018-09-02T14:47:52.991Z,18.00
2018-09-02T14:50:21.529Z,17.80
2018-09-02T14:52:49.991Z,17.80
2018-09-02T14:55:18.435Z,17.90
2018-09-02T14:57:46.904Z,17.90
2018-09-02T15:00:15.433Z,17.70
2018-09-02T15:02:43.952Z,17.70
2018-09-02T15:05:12.383Z,17.80
2018-09-02T15:07:40.858Z,17.70
2018-09-02T15:10:09.308Z,17.80
2018-09-02T15:12:37.866Z,17.70
2018-09-02T15:15:06.418Z,17.70
2018-09-02T15:17:34.752Z,17.70
2018-09-02T15:20:03.227Z,17.80
2018-09-02T15:22:31.740Z,17.80
2018-09-02T15:25:00.198Z,17.70
2018-09-02T15:27:28.673Z,17.70
2018-09-02T15:29:57.190Z,17.50
2018-09-02T15:32:25.663Z,17.60
2018-09-02T15:34:54.071Z,17.60
2018-09-02T15:37:22.512Z,17.50
2018-09-02T15:39:51.032Z,17.50
2018-09-02T15:42:19.512Z,17.70
2018-09-02T15:44:47.969Z,17.70
2018-09-02T15:47:16.368Z,17.80
2018-09-02T15:49:44.907Z,17.80
2018-09-02T15:52:13.282Z,17.90
2018-09-02T15:54:41.716Z,17.90
2018-09-02T15:57:10.189Z,18.00
2018-09-02T15:59:38.667Z,17.90
2018-09-02T16:02:07.126Z,17.90
2018-09-02T16:04:35.586Z,18.00
2018-09-02T16:07:04.202Z,17.80
2018-09-02T16:09:32.635Z,17.80
2018-09-02T16:12:01.117Z,17.80
2018-09-02T16:14:29.651Z,17.70
2018-09-02T16:16:58.259Z,17.70
2018-09-02T16:19:26.815Z,17.60
2018-09-02T16:21:55.311Z,17.70
2018-09-02T16:24:23.778Z,17.70
2018-09-02T16:26:52.260Z,17.70
2018-09-02T16:29:21.033Z,17.70
2018-09-02T16:31:49.413Z,17.70
2018-09-02T16:34:17.961Z,17.60
2018-09-02T16:36:46.359Z,17.50
2018-09-02T16:39:14.793Z,17.40
2018-09-02T16:41:43.283Z,17.30
2018-09-02T16:44:11.722Z,17.40
2018-09-02T16:46:40.122Z,17.30
2018-09-02T16:49:08.619Z,17.20
2018-09-02T16:51:37.258Z,17.20
2018-09-02T16:54:05.816Z,17.20
2018-09-02T16:56:34.231Z,17.20
2018-09-02T16:59:02.679Z,17.30
2018-09-02T17:01:31.138Z,17.20
2018-09-02T17:04:03.023Z,17.10
2018-09-02T17:06:31.481Z,17.10
2018-09-02T17:09:00.031Z,17.20
2018-09-02T17:11:28.411Z,17.20
2018-09-02T17:13:56.920Z,17.20
2018-09-02T17:16:25.378Z,17.30
2018-09-02T17:18:57.237Z,17.20
2018-09-02T17:21:25.683Z,17.20
2018-09-02T17:23:54.166Z,17.10
2018-09-02T17:26:22.649Z,17.00
2018-09-02T17:28:51.198Z,16.90
2018-09-02T17:31:19.632Z,16.90
2018-09-02T17:33:48.080Z,16.90
2018-09-02T17:36:16.522Z,16.90
2018-09-02T17:38:44.958Z,16.90
2018-09-02T17:41:13.480Z,16.80
2018-09-02T17:43:41.986Z,16.70
2018-09-02T17:46:10.449Z,16.70
2018-09-02T17:48:38.943Z,16.70
2018-09-02T17:51:07.458Z,16.70
2018-09-02T17:53:35.947Z,16.60
2018-09-02T17:56:04.323Z,16.60
2018-09-02T17:58:32.796Z,16.60
2018-09-02T18:01:01.444Z,16.70
2018-09-02T18:03:29.869Z,16.70
2018-09-02T18:05:58.406Z,16.70
2018-09-02T18:08:26.987Z,16.70
2018-09-02T18:10:55.447Z,16.50
2018-09-02T18:13:23.955Z,16.60
2018-09-02T18:15:52.445Z,16.60
2018-09-02T18:18:21.007Z,16.50
2018-09-02T18:20:49.411Z,16.50
2018-09-02T18:23:17.840Z,16.50
2018-09-02T18:25:46.355Z,16.50
2018-09-02T18:28:17.586Z,16.60
2018-09-02T18:30:46.249Z,16.60
2018-09-02T18:33:14.663Z,16.60
2018-09-02T18:35:43.198Z,16.50
2018-09-02T18:38:11.627Z,16.50
2018-09-02T18:40:40.158Z,16.40
2018-09-02T18:43:08.591Z,16.50
2018-09-02T18:45:37.110Z,16.50
2018-09-02T18:48:05.639Z,16.30
2018-09-02T18:50:34.140Z,16.30
2018-09-02T18:53:02.505Z,16.20
2018-09-02T18:55:30.974Z,16.40
2018-09-02T18:57:59.476Z,16.40
2018-09-02T19:00:27.888Z,16.40
2018-09-02T19:02:56.338Z,16.50
2018-09-02T19:05:24.827Z,16.40
2018-09-02T19:07:53.247Z,16.20
2018-09-02T19:10:21.675Z,16.20
2018-09-02T19:12:50.112Z,16.20
2018-09-02T19:15:18.677Z,16.20
2018-09-02T19:17:47.079Z,16.10
2018-09-02T19:20:15.487Z,16.10
2018-09-02T19:22:43.998Z,16.10
2018-09-02T19:25:12.459Z,16.20
2018-09-02T19:27:41.655Z,16.10
2018-09-02T19:30:10.184Z,16.20
2018-09-02T19:32:38.670Z,16.20
2018-09-02T19:35:07.202Z,16.20
2018-09-02T19:37:35.612Z,16.20
2018-09-02T19:40:04.015Z,16.20
2018-09-02T19:42:32.524Z,16.10
2018-09-02T19:45:00.900Z,16.20
2018-09-02T19:47:29.331Z,16.30
2018-09-02T19:49:57.812Z,16.20
2018-09-02T19:52:26.303Z,16.10
2018-09-02T19:54:54.842Z,16.00
2018-09-02T19:57:23.222Z,15.90
2018-09-02T19:59:51.703Z,15.90
2018-09-02T20:02:20.296Z,15.90
2018-09-02T20:04:48.695Z,16.00
2018-09-02T20:07:17.169Z,15.90
2018-09-02T20:09:45.621Z,15.90
2018-09-02T20:12:14.098Z,15.90
2018-09-02T20:14:42.514Z,15.90
2018-09-02T20:17:10.997Z,15.80
2018-09-02T20:19:39.401Z,15.80
2018-09-02T20:22:10.210Z,15.80
2018-09-02T20:24:38.745Z,15.90
2018-09-02T20:27:07.431Z,15.90
2018-09-02T20:29:35.865Z,15.90
2018-09-02T20:32:04.413Z,16.10
2018-09-02T20:34:32.850Z,16.00
2018-09-02T20:37:01.296Z,15.90
2018-09-02T20:39:29.707Z,15.90
2018-09-02T20:41:58.131Z,15.80
2018-09-02T20:44:26.542Z,15.80
2018-09-02T20:46:54.909Z,15.90
2018-09-02T20:49:23.285Z,15.90
2018-09-02T20:51:51.627Z,16.00
2018-09-02T20:54:20.178Z,16.00
2018-09-02T20:56:48.617Z,15.90
2018-09-02T20:59:17.168Z,15.90
2018-09-02T21:01:45.602Z,15.90
2018-09-02T21:04:13.984Z,15.70
2018-09-02T21:06:42.428Z,15.70
2018-09-02T21:09:13.467Z,15.70
2018-09-02T21:11:42.293Z,15.80
2018-09-02T21:14:10.722Z,15.80
2018-09-02T21:16:39.173Z,15.70
2018-09-02T21:19:07.547Z,15.70
2018-09-02T21:21:36.046Z,15.70
2018-09-02T21:24:04.556Z,15.70
2018-09-02T21:26:33.037Z,15.80
2018-09-02T21:29:01.663Z,15.80
2018-09-02T21:31:30.371Z,15.70
2018-09-02T21:33:58.720Z,15.80
2018-09-02T21:36:27.054Z,15.70
2018-09-02T21:38:55.491Z,15.60
2018-09-02T21:41:23.878Z,15.60
2018-09-02T21:43:52.344Z,15.80
2018-09-02T21:46:21.526Z,15.80
2018-09-02T21:48:49.983Z,15.70
2018-09-02T21:51:18.398Z,15.80
2018-09-02T21:53:46.824Z,15.80
2018-09-02T21:56:15.276Z,15.70
2018-09-02T21:58:43.679Z,15.70
2018-09-02T22:01:12.213Z,15.70
2018-09-02T22:03:40.791Z,15.70
2018-09-02T22:06:09.201Z,15.70
2018-09-02T22:08:37.654Z,15.70
2018-09-02T22:11:06.063Z,15.60
2018-09-02T22:13:34.516Z,15.70
2018-09-02T22:16:02.952Z,15.70
2018-09-02T22:18:31.445Z,15.80
2018-09-02T22:20:59.882Z,15.70
2018-09-02T22:23:28.221Z,15.60
2018-09-02T22:25:56.751Z,15.60
2018-09-02T22:28:25.178Z,15.70
2018-09-02T22:30:53.614Z,15.60
2018-09-02T22:33:22.133Z,15.70
2018-09-02T22:35:50.638Z,15.60
2018-09-02T22:38:19.092Z,15.60
2018-09-02T22:40:47.555Z,15.50
2018-09-02T22:43:16.101Z,15.50
2018-09-02T22:45:44.639Z,15.50
2018-09-02T22:48:13.133Z,15.60
2018-09-02T22:50:41.597Z,15.50
2018-09-02T22:53:10.005Z,15.60
2018-09-02T22:55:38.425Z,15.50
2018-09-02T22:58:06.975Z,15.50
2018-09-02T23:00:35.478Z,15.60
2018-09-02T23:03:03.917Z,15.70
2018-09-02T23:05:32.345Z,15.60
2018-09-02T23:08:00.840Z,15.60
2018-09-02T23:10:29.325Z,15.50
2018-09-02T23:12:57.826Z,15.40
2018-09-02T23:15:26.366Z,15.40
2018-09-02T23:17:54.914Z,15.40
2018-09-02T23:20:23.388Z,15.40
2018-09-02T23:22:51.887Z,15.40
2018-09-02T23:25:20.346Z,15.40
2018-09-02T23:27:48.769Z,15.50
2018-09-02T23:30:17.231Z,15.40
2018-09-02T23:32:45.639Z,15.40
2018-09-02T23:35:14.077Z,15.50
2018-09-02T23:37:42.533Z,15.50
2018-09-02T23:40:11.094Z,15.50
2018-09-02T23:42:39.489Z,15.60
2018-09-02T23:45:07.888Z,15.40
2018-09-02T23:47:36.284Z,15.30
2018-09-02T23:50:04.705Z,15.40
2018-09-02T23:52:33.142Z,15.60
2018-09-02T23:55:01.610Z,15.70
2018-09-02T23:57:30.067Z,15.70
2018-09-02T23:59:58.602Z,15.60
